sensor_id;sensor_type;location;lat;lon;timestamp;P1;durP1;ratioP1;P2;durP2;ratioP2
5684;SDS011;2865;53.114;9.130;2022-07-29T00:02:11;1.83;;;1.70;;
5684;SDS011;2865;53.114;9.130;2022-07-29T00:04:37;2.27;;;2.10;;
5684;SDS011;2865;53.114;9.130;2022-07-29T00:07:03;5.87;;;2.10;;
5684;SDS011;2865;53.114;9.130;2022-07-29T00:09:27;1.70;;;1.60;;
5684;SDS011;2865;53.114;9.130;2022-07-29T00:11:53;5.47;;;2.17;;
5684;SDS011;2865;53.114;9.130;2022-07-29T00:14:18;1.87;;;1.77;;
5684;SDS011;2865;53.114;9.130;2022-07-29T00:16:43;2.00;;;1.90;;
5684;SDS011;2865;53.114;9.130;2022-07-29T00:19:09;1.80;;;1.67;;
5684;SDS011;2865;53.114;9.130;2022-07-29T00:21:34;2.80;;;1.80;;
5684;SDS011;2865;53.114;9.130;2022-07-29T00:23:59;3.10;;;2.17;;
5684;SDS011;2865;53.114;9.130;2022-07-29T00:26:25;3.23;;;2.40;;
5684;SDS011;2865;53.114;9.130;2022-07-29T00:28:50;3.83;;;1.93;;
5684;SDS011;2865;53.114;9.130;2022-07-29T00:31:16;2.10;;;2.00;;
5684;SDS011;2865;53.114;9.130;2022-07-29T00:33:41;3.33;;;2.53;;
5684;SDS011;2865;53.114;9.130;2022-07-29T00:36:06;2.20;;;2.10;;
5684;SDS011;2865;53.114;9.130;2022-07-29T00:38:32;22.53;;;2.80;;
5684;SDS011;2865;53.114;9.130;2022-07-29T00:40:57;4.90;;;2.00;;
5684;SDS011;2865;53.114;9.130;2022-07-29T00:43:22;3.53;;;2.07;;
5684;SDS011;2865;53.114;9.130;2022-07-29T00:45:48;1.93;;;1.70;;
5684;SDS011;2865;53.114;9.130;2022-07-29T00:48:13;3.47;;;2.27;;
5684;SDS011;2865;53.114;9.130;2022-07-29T00:50:38;5.13;;;1.90;;
5684;SDS011;2865;53.114;9.130;2022-07-29T00:53:05;3.57;;;2.17;;
5684;SDS011;2865;53.114;9.130;2022-07-29T00:55:29;6.13;;;2.00;;
5684;SDS011;2865;53.114;9.130;2022-07-29T00:57:54;6.77;;;3.07;;
5684;SDS011;2865;53.114;9.130;2022-07-29T01:00:21;2.03;;;1.93;;
5684;SDS011;2865;53.114;9.130;2022-07-29T01:02:46;6.13;;;2.10;;
5684;SDS011;2865;53.114;9.130;2022-07-29T01:05:16;2.27;;;1.87;;
5684;SDS011;2865;53.114;9.130;2022-07-29T01:07:40;2.07;;;1.97;;
5684;SDS011;2865;53.114;9.130;2022-07-29T01:10:06;3.00;;;1.80;;
5684;SDS011;2865;53.114;9.130;2022-07-29T01:12:31;3.13;;;1.93;;
5684;SDS011;2865;53.114;9.130;2022-07-29T01:14:58;2.30;;;1.97;;
5684;SDS011;2865;53.114;9.130;2022-07-29T01:17:25;2.90;;;2.07;;
5684;SDS011;2865;53.114;9.130;2022-07-29T01:19:54;2.30;;;2.10;;
5684;SDS011;2865;53.114;9.130;2022-07-29T01:22:37;2.53;;;1.90;;
5684;SDS011;2865;53.114;9.130;2022-07-29T01:25:20;4.00;;;2.20;;
5684;SDS011;2865;53.114;9.130;2022-07-29T01:27:54;6.47;;;2.50;;
5684;SDS011;2865;53.114;9.130;2022-07-29T01:30:16;2.60;;;2.30;;
5684;SDS011;2865;53.114;9.130;2022-07-29T01:32:41;7.63;;;2.30;;
5684;SDS011;2865;53.114;9.130;2022-07-29T01:37:54;4.60;;;2.30;;
5684;SDS011;2865;53.114;9.130;2022-07-29T01:40:22;4.67;;;2.00;;
5684;SDS011;2865;53.114;9.130;2022-07-29T01:42:48;5.30;;;2.40;;
5684;SDS011;2865;53.114;9.130;2022-07-29T01:45:18;4.60;;;2.07;;
5684;SDS011;2865;53.114;9.130;2022-07-29T01:47:44;2.47;;;2.00;;
5684;SDS011;2865;53.114;9.130;2022-07-29T01:50:09;10.63;;;2.00;;
5684;SDS011;2865;53.114;9.130;2022-07-29T01:52:36;5.80;;;2.33;;
5684;SDS011;2865;53.114;9.130;2022-07-29T01:55:01;3.40;;;2.70;;
5684;SDS011;2865;53.114;9.130;2022-07-29T01:57:26;5.87;;;2.47;;
5684;SDS011;2865;53.114;9.130;2022-07-29T01:59:51;7.13;;;2.30;;
5684;SDS011;2865;53.114;9.130;2022-07-29T02:02:16;8.70;;;2.47;;
5684;SDS011;2865;53.114;9.130;2022-07-29T02:04:42;5.60;;;1.93;;
5684;SDS011;2865;53.114;9.130;2022-07-29T02:07:07;2.87;;;1.90;;
5684;SDS011;2865;53.114;9.130;2022-07-29T02:09:33;3.87;;;2.40;;
5684;SDS011;2865;53.114;9.130;2022-07-29T02:11:57;5.93;;;2.30;;
5684;SDS011;2865;53.114;9.130;2022-07-29T02:14:23;2.67;;;2.30;;
5684;SDS011;2865;53.114;9.130;2022-07-29T02:16:49;2.80;;;2.30;;
5684;SDS011;2865;53.114;9.130;2022-07-29T02:19:13;3.10;;;2.23;;
5684;SDS011;2865;53.114;9.130;2022-07-29T02:21:39;3.60;;;2.07;;
5684;SDS011;2865;53.114;9.130;2022-07-29T02:24:04;8.23;;;2.50;;
5684;SDS011;2865;53.114;9.130;2022-07-29T02:26:30;2.63;;;1.93;;
5684;SDS011;2865;53.114;9.130;2022-07-29T02:28:56;2.70;;;1.93;;
5684;SDS011;2865;53.114;9.130;2022-07-29T02:31:21;3.13;;;2.03;;
5684;SDS011;2865;53.114;9.130;2022-07-29T02:33:46;2.50;;;2.10;;
5684;SDS011;2865;53.114;9.130;2022-07-29T02:36:11;5.43;;;2.13;;
5684;SDS011;2865;53.114;9.130;2022-07-29T02:38:37;3.60;;;2.20;;
5684;SDS011;2865;53.114;9.130;2022-07-29T02:41:16;7.30;;;1.90;;
5684;SDS011;2865;53.114;9.130;2022-07-29T02:43:43;2.30;;;2.10;;
5684;SDS011;2865;53.114;9.130;2022-07-29T02:46:08;3.37;;;2.03;;
5684;SDS011;2865;53.114;9.130;2022-07-29T02:48:36;2.63;;;2.03;;
5684;SDS011;2865;53.114;9.130;2022-07-29T02:51:04;2.50;;;2.00;;
5684;SDS011;2865;53.114;9.130;2022-07-29T02:53:26;3.33;;;2.33;;
5684;SDS011;2865;53.114;9.130;2022-07-29T02:55:58;3.37;;;1.80;;
5684;SDS011;2865;53.114;9.130;2022-07-29T02:58:33;3.97;;;2.43;;
5684;SDS011;2865;53.114;9.130;2022-07-29T03:00:59;2.53;;;2.20;;
5684;SDS011;2865;53.114;9.130;2022-07-29T03:03:25;5.83;;;2.27;;
5684;SDS011;2865;53.114;9.130;2022-07-29T03:05:51;3.47;;;3.17;;
5684;SDS011;2865;53.114;9.130;2022-07-29T03:08:15;3.30;;;2.07;;
5684;SDS011;2865;53.114;9.130;2022-07-29T03:10:43;4.70;;;2.43;;
5684;SDS011;2865;53.114;9.130;2022-07-29T03:13:06;2.37;;;2.13;;
5684;SDS011;2865;53.114;9.130;2022-07-29T03:15:31;1.90;;;1.80;;
5684;SDS011;2865;53.114;9.130;2022-07-29T03:17:56;2.53;;;2.10;;
5684;SDS011;2865;53.114;9.130;2022-07-29T03:20:22;5.97;;;2.50;;
5684;SDS011;2865;53.114;9.130;2022-07-29T03:22:47;3.57;;;2.10;;
5684;SDS011;2865;53.114;9.130;2022-07-29T03:25:13;3.17;;;2.10;;
5684;SDS011;2865;53.114;9.130;2022-07-29T03:27:38;3.60;;;2.20;;
5684;SDS011;2865;53.114;9.130;2022-07-29T03:30:04;4.77;;;2.03;;
5684;SDS011;2865;53.114;9.130;2022-07-29T03:32:29;2.00;;;1.90;;
5684;SDS011;2865;53.114;9.130;2022-07-29T03:34:55;2.80;;;2.00;;
5684;SDS011;2865;53.114;9.130;2022-07-29T03:37:20;2.00;;;1.90;;
5684;SDS011;2865;53.114;9.130;2022-07-29T03:39:45;7.87;;;2.30;;
5684;SDS011;2865;53.114;9.130;2022-07-29T03:42:11;2.27;;;2.07;;
5684;SDS011;2865;53.114;9.130;2022-07-29T03:44:36;3.27;;;2.37;;
5684;SDS011;2865;53.114;9.130;2022-07-29T03:47:02;2.33;;;2.13;;
5684;SDS011;2865;53.114;9.130;2022-07-29T03:49:27;3.97;;;2.50;;
5684;SDS011;2865;53.114;9.130;2022-07-29T03:51:52;3.57;;;2.33;;
5684;SDS011;2865;53.114;9.130;2022-07-29T03:54:18;2.80;;;2.60;;
5684;SDS011;2865;53.114;9.130;2022-07-29T03:56:43;3.97;;;2.10;;
5684;SDS011;2865;53.114;9.130;2022-07-29T03:59:08;3.67;;;2.43;;
5684;SDS011;2865;53.114;9.130;2022-07-29T04:01:34;3.63;;;2.20;;
5684;SDS011;2865;53.114;9.130;2022-07-29T04:03:59;8.00;;;2.63;;
5684;SDS011;2865;53.114;9.130;2022-07-29T04:06:24;3.23;;;2.43;;
5684;SDS011;2865;53.114;9.130;2022-07-29T04:08:50;2.60;;;2.40;;
5684;SDS011;2865;53.114;9.130;2022-07-29T04:11:15;3.33;;;2.47;;
5684;SDS011;2865;53.114;9.130;2022-07-29T04:13:40;2.70;;;2.20;;
5684;SDS011;2865;53.114;9.130;2022-07-29T04:16:06;3.03;;;2.60;;
5684;SDS011;2865;53.114;9.130;2022-07-29T04:18:31;3.90;;;2.70;;
5684;SDS011;2865;53.114;9.130;2022-07-29T04:20:56;3.90;;;3.13;;
5684;SDS011;2865;53.114;9.130;2022-07-29T04:23:22;3.50;;;3.10;;
5684;SDS011;2865;53.114;9.130;2022-07-29T04:25:47;3.03;;;2.73;;
5684;SDS011;2865;53.114;9.130;2022-07-29T04:28:13;4.53;;;2.80;;
5684;SDS011;2865;53.114;9.130;2022-07-29T04:30:38;5.17;;;2.67;;
5684;SDS011;2865;53.114;9.130;2022-07-29T04:33:04;3.20;;;2.30;;
5684;SDS011;2865;53.114;9.130;2022-07-29T04:35:29;3.77;;;1.93;;
5684;SDS011;2865;53.114;9.130;2022-07-29T04:37:54;3.93;;;2.53;;
5684;SDS011;2865;53.114;9.130;2022-07-29T04:40:19;2.30;;;2.10;;
5684;SDS011;2865;53.114;9.130;2022-07-29T04:42:45;2.50;;;2.30;;
5684;SDS011;2865;53.114;9.130;2022-07-29T04:45:10;2.90;;;2.60;;
5684;SDS011;2865;53.114;9.130;2022-07-29T04:47:36;9.37;;;2.77;;
5684;SDS011;2865;53.114;9.130;2022-07-29T04:50:01;4.90;;;2.30;;
5684;SDS011;2865;53.114;9.130;2022-07-29T04:52:26;4.03;;;2.77;;
5684;SDS011;2865;53.114;9.130;2022-07-29T04:54:52;5.60;;;3.50;;
5684;SDS011;2865;53.114;9.130;2022-07-29T04:57:17;6.77;;;3.20;;
5684;SDS011;2865;53.114;9.130;2022-07-29T04:59:42;4.27;;;3.00;;
5684;SDS011;2865;53.114;9.130;2022-07-29T05:02:08;7.43;;;2.90;;
5684;SDS011;2865;53.114;9.130;2022-07-29T05:04:33;3.90;;;3.37;;
5684;SDS011;2865;53.114;9.130;2022-07-29T05:06:58;6.10;;;2.73;;
5684;SDS011;2865;53.114;9.130;2022-07-29T05:09:23;4.00;;;2.73;;
5684;SDS011;2865;53.114;9.130;2022-07-29T05:11:49;4.50;;;3.30;;
5684;SDS011;2865;53.114;9.130;2022-07-29T05:14:14;4.23;;;3.00;;
5684;SDS011;2865;53.114;9.130;2022-07-29T05:16:39;3.83;;;2.63;;
5684;SDS011;2865;53.114;9.130;2022-07-29T05:19:05;7.70;;;2.87;;
5684;SDS011;2865;53.114;9.130;2022-07-29T05:21:30;4.27;;;2.70;;
5684;SDS011;2865;53.114;9.130;2022-07-29T05:23:56;3.67;;;2.80;;
5684;SDS011;2865;53.114;9.130;2022-07-29T05:26:21;3.33;;;2.53;;
5684;SDS011;2865;53.114;9.130;2022-07-29T05:28:46;4.97;;;2.60;;
5684;SDS011;2865;53.114;9.130;2022-07-29T05:31:12;22.70;;;2.73;;
5684;SDS011;2865;53.114;9.130;2022-07-29T05:33:37;4.60;;;2.80;;
5684;SDS011;2865;53.114;9.130;2022-07-29T05:36:03;7.00;;;2.30;;
5684;SDS011;2865;53.114;9.130;2022-07-29T05:38:29;3.50;;;2.37;;
5684;SDS011;2865;53.114;9.130;2022-07-29T05:40:55;4.77;;;2.67;;
5684;SDS011;2865;53.114;9.130;2022-07-29T05:43:19;3.00;;;2.23;;
5684;SDS011;2865;53.114;9.130;2022-07-29T05:45:45;3.53;;;3.23;;
5684;SDS011;2865;53.114;9.130;2022-07-29T05:48:10;4.73;;;2.43;;
5684;SDS011;2865;53.114;9.130;2022-07-29T05:50:35;4.00;;;2.37;;
5684;SDS011;2865;53.114;9.130;2022-07-29T05:53:01;3.90;;;3.17;;
5684;SDS011;2865;53.114;9.130;2022-07-29T05:55:26;4.27;;;2.50;;
5684;SDS011;2865;53.114;9.130;2022-07-29T05:57:52;4.67;;;3.00;;
5684;SDS011;2865;53.114;9.130;2022-07-29T06:00:17;3.00;;;2.47;;
5684;SDS011;2865;53.114;9.130;2022-07-29T06:02:42;3.33;;;2.30;;
5684;SDS011;2865;53.114;9.130;2022-07-29T06:05:08;3.87;;;2.50;;
5684;SDS011;2865;53.114;9.130;2022-07-29T06:07:34;3.17;;;2.60;;
5684;SDS011;2865;53.114;9.130;2022-07-29T06:09:59;3.20;;;2.77;;
5684;SDS011;2865;53.114;9.130;2022-07-29T06:12:24;4.30;;;2.40;;
5684;SDS011;2865;53.114;9.130;2022-07-29T06:14:50;2.93;;;2.40;;
5684;SDS011;2865;53.114;9.130;2022-07-29T06:17:15;9.60;;;3.23;;
5684;SDS011;2865;53.114;9.130;2022-07-29T06:19:40;15.03;;;3.07;;
5684;SDS011;2865;53.114;9.130;2022-07-29T06:22:06;3.80;;;2.47;;
5684;SDS011;2865;53.114;9.130;2022-07-29T06:24:31;5.63;;;2.90;;
5684;SDS011;2865;53.114;9.130;2022-07-29T06:26:56;6.07;;;2.93;;
5684;SDS011;2865;53.114;9.130;2022-07-29T06:29:22;3.90;;;2.63;;
5684;SDS011;2865;53.114;9.130;2022-07-29T06:31:47;5.70;;;2.57;;
5684;SDS011;2865;53.114;9.130;2022-07-29T06:34:13;5.40;;;2.80;;
5684;SDS011;2865;53.114;9.130;2022-07-29T06:36:38;3.00;;;2.77;;
5684;SDS011;2865;53.114;9.130;2022-07-29T06:39:04;4.80;;;2.90;;
5684;SDS011;2865;53.114;9.130;2022-07-29T06:41:29;3.37;;;3.00;;
5684;SDS011;2865;53.114;9.130;2022-07-29T06:43:54;2.90;;;2.43;;
5684;SDS011;2865;53.114;9.130;2022-07-29T06:46:20;7.37;;;2.60;;
5684;SDS011;2865;53.114;9.130;2022-07-29T06:48:45;4.50;;;2.83;;
5684;SDS011;2865;53.114;9.130;2022-07-29T06:51:10;4.73;;;2.57;;
5684;SDS011;2865;53.114;9.130;2022-07-29T06:53:36;5.70;;;2.33;;
5684;SDS011;2865;53.114;9.130;2022-07-29T06:56:02;5.90;;;3.07;;
5684;SDS011;2865;53.114;9.130;2022-07-29T06:58:27;4.60;;;2.70;;
5684;SDS011;2865;53.114;9.130;2022-07-29T07:00:52;4.03;;;2.33;;
5684;SDS011;2865;53.114;9.130;2022-07-29T07:03:17;3.17;;;2.87;;
5684;SDS011;2865;53.114;9.130;2022-07-29T07:05:43;3.67;;;2.60;;
5684;SDS011;2865;53.114;9.130;2022-07-29T07:08:08;4.80;;;2.77;;
5684;SDS011;2865;53.114;9.130;2022-07-29T07:10:33;4.80;;;2.63;;
5684;SDS011;2865;53.114;9.130;2022-07-29T07:12:59;5.43;;;2.37;;
5684;SDS011;2865;53.114;9.130;2022-07-29T07:15:24;10.70;;;3.00;;
5684;SDS011;2865;53.114;9.130;2022-07-29T07:17:49;3.50;;;2.40;;
5684;SDS011;2865;53.114;9.130;2022-07-29T07:20:15;4.20;;;2.77;;
5684;SDS011;2865;53.114;9.130;2022-07-29T07:22:40;3.83;;;2.33;;
5684;SDS011;2865;53.114;9.130;2022-07-29T07:25:06;5.63;;;2.30;;
5684;SDS011;2865;53.114;9.130;2022-07-29T07:27:31;8.07;;;2.67;;
5684;SDS011;2865;53.114;9.130;2022-07-29T07:29:57;7.00;;;2.70;;
5684;SDS011;2865;53.114;9.130;2022-07-29T07:32:22;2.67;;;2.13;;
5684;SDS011;2865;53.114;9.130;2022-07-29T07:34:48;7.53;;;2.60;;
5684;SDS011;2865;53.114;9.130;2022-07-29T07:37:13;5.60;;;2.80;;
5684;SDS011;2865;53.114;9.130;2022-07-29T07:39:38;12.03;;;2.80;;
5684;SDS011;2865;53.114;9.130;2022-07-29T07:42:03;6.73;;;2.73;;
5684;SDS011;2865;53.114;9.130;2022-07-29T07:44:29;3.27;;;2.20;;
5684;SDS011;2865;53.114;9.130;2022-07-29T07:46:54;7.53;;;2.77;;
5684;SDS011;2865;53.114;9.130;2022-07-29T07:49:20;3.50;;;2.57;;
5684;SDS011;2865;53.114;9.130;2022-07-29T07:51:45;7.87;;;2.50;;
5684;SDS011;2865;53.114;9.130;2022-07-29T07:54:10;4.87;;;2.93;;
5684;SDS011;2865;53.114;9.130;2022-07-29T07:56:36;3.70;;;2.20;;
5684;SDS011;2865;53.114;9.130;2022-07-29T07:59:01;3.37;;;2.30;;
5684;SDS011;2865;53.114;9.130;2022-07-29T08:01:26;10.83;;;2.80;;
5684;SDS011;2865;53.114;9.130;2022-07-29T08:03:52;3.27;;;1.97;;
5684;SDS011;2865;53.114;9.130;2022-07-29T08:06:17;10.77;;;3.20;;
5684;SDS011;2865;53.114;9.130;2022-07-29T08:08:42;4.40;;;3.00;;
5684;SDS011;2865;53.114;9.130;2022-07-29T08:11:08;4.33;;;2.03;;
5684;SDS011;2865;53.114;9.130;2022-07-29T08:13:33;7.53;;;3.10;;
5684;SDS011;2865;53.114;9.130;2022-07-29T08:15:59;4.80;;;2.50;;
5684;SDS011;2865;53.114;9.130;2022-07-29T08:18:27;4.90;;;3.10;;
5684;SDS011;2865;53.114;9.130;2022-07-29T08:20:51;3.13;;;2.33;;
5684;SDS011;2865;53.114;9.130;2022-07-29T08:23:16;8.63;;;2.80;;
5684;SDS011;2865;53.114;9.130;2022-07-29T08:25:42;3.40;;;2.50;;
5684;SDS011;2865;53.114;9.130;2022-07-29T08:28:07;2.97;;;2.67;;
5684;SDS011;2865;53.114;9.130;2022-07-29T08:30:33;5.00;;;2.00;;
5684;SDS011;2865;53.114;9.130;2022-07-29T08:32:58;5.80;;;3.13;;
5684;SDS011;2865;53.114;9.130;2022-07-29T08:35:23;3.23;;;1.87;;
5684;SDS011;2865;53.114;9.130;2022-07-29T08:37:49;6.33;;;2.40;;
5684;SDS011;2865;53.114;9.130;2022-07-29T08:40:14;5.70;;;2.63;;
5684;SDS011;2865;53.114;9.130;2022-07-29T08:42:40;5.60;;;2.27;;
5684;SDS011;2865;53.114;9.130;2022-07-29T08:45:06;2.27;;;1.90;;
5684;SDS011;2865;53.114;9.130;2022-07-29T08:47:32;4.33;;;2.13;;
5684;SDS011;2865;53.114;9.130;2022-07-29T08:49:57;4.10;;;2.13;;
5684;SDS011;2865;53.114;9.130;2022-07-29T08:52:24;6.80;;;2.60;;
5684;SDS011;2865;53.114;9.130;2022-07-29T08:54:48;6.03;;;2.17;;
5684;SDS011;2865;53.114;9.130;2022-07-29T08:57:13;3.90;;;1.53;;
5684;SDS011;2865;53.114;9.130;2022-07-29T08:59:39;4.43;;;1.83;;
5684;SDS011;2865;53.114;9.130;2022-07-29T09:02:04;7.80;;;2.60;;
5684;SDS011;2865;53.114;9.130;2022-07-29T09:04:30;3.70;;;2.47;;
5684;SDS011;2865;53.114;9.130;2022-07-29T09:06:55;4.93;;;2.10;;
5684;SDS011;2865;53.114;9.130;2022-07-29T09:09:20;7.03;;;2.47;;
5684;SDS011;2865;53.114;9.130;2022-07-29T09:11:45;2.83;;;2.00;;
5684;SDS011;2865;53.114;9.130;2022-07-29T09:14:11;6.03;;;2.40;;
5684;SDS011;2865;53.114;9.130;2022-07-29T09:16:43;2.67;;;2.13;;
5684;SDS011;2865;53.114;9.130;2022-07-29T09:19:18;3.30;;;1.77;;
5684;SDS011;2865;53.114;9.130;2022-07-29T09:21:33;3.70;;;1.80;;
5684;SDS011;2865;53.114;9.130;2022-07-29T09:24:05;4.13;;;1.83;;
5684;SDS011;2865;53.114;9.130;2022-07-29T09:26:30;2.27;;;2.07;;
5684;SDS011;2865;53.114;9.130;2022-07-29T09:28:55;4.53;;;1.93;;
5684;SDS011;2865;53.114;9.130;2022-07-29T09:31:25;3.20;;;1.70;;
5684;SDS011;2865;53.114;9.130;2022-07-29T09:33:45;4.10;;;1.90;;
5684;SDS011;2865;53.114;9.130;2022-07-29T09:36:11;3.00;;;1.93;;
5684;SDS011;2865;53.114;9.130;2022-07-29T09:38:37;3.20;;;1.70;;
5684;SDS011;2865;53.114;9.130;2022-07-29T09:41:03;6.37;;;2.13;;
5684;SDS011;2865;53.114;9.130;2022-07-29T09:43:27;3.40;;;1.93;;
5684;SDS011;2865;53.114;9.130;2022-07-29T09:45:53;3.40;;;2.83;;
5684;SDS011;2865;53.114;9.130;2022-07-29T09:48:20;3.30;;;2.10;;
5684;SDS011;2865;53.114;9.130;2022-07-29T09:50:45;3.80;;;1.70;;
5684;SDS011;2865;53.114;9.130;2022-07-29T09:53:10;7.27;;;2.10;;
5684;SDS011;2865;53.114;9.130;2022-07-29T09:58:14;4.47;;;1.50;;
5684;SDS011;2865;53.114;9.130;2022-07-29T10:00:41;2.43;;;1.63;;
5684;SDS011;2865;53.114;9.130;2022-07-29T10:03:05;4.23;;;1.90;;
5684;SDS011;2865;53.114;9.130;2022-07-29T10:05:30;3.40;;;1.63;;
5684;SDS011;2865;53.114;9.130;2022-07-29T10:07:56;3.03;;;1.40;;
5684;SDS011;2865;53.114;9.130;2022-07-29T10:10:22;2.67;;;1.50;;
5684;SDS011;2865;53.114;9.130;2022-07-29T10:12:51;4.80;;;1.87;;
5684;SDS011;2865;53.114;9.130;2022-07-29T10:15:25;3.20;;;1.40;;
5684;SDS011;2865;53.114;9.130;2022-07-29T10:17:50;3.50;;;1.83;;
5684;SDS011;2865;53.114;9.130;2022-07-29T10:20:15;2.80;;;1.60;;
5684;SDS011;2865;53.114;9.130;2022-07-29T10:22:40;3.07;;;1.40;;
5684;SDS011;2865;53.114;9.130;2022-07-29T10:25:06;3.70;;;1.73;;
5684;SDS011;2865;53.114;9.130;2022-07-29T10:27:32;42.97;;;3.47;;
5684;SDS011;2865;53.114;9.130;2022-07-29T10:29:57;2.00;;;1.50;;
5684;SDS011;2865;53.114;9.130;2022-07-29T10:32:29;4.13;;;1.80;;
5684;SDS011;2865;53.114;9.130;2022-07-29T10:35:15;15.90;;;1.53;;
5684;SDS011;2865;53.114;9.130;2022-07-29T10:38:08;2.80;;;1.60;;
5684;SDS011;2865;53.114;9.130;2022-07-29T10:43:29;18.83;;;2.40;;
5684;SDS011;2865;53.114;9.130;2022-07-29T10:45:55;2.60;;;1.50;;
5684;SDS011;2865;53.114;9.130;2022-07-29T10:48:20;1.50;;;1.20;;
5684;SDS011;2865;53.114;9.130;2022-07-29T10:50:52;4.83;;;1.97;;
5684;SDS011;2865;53.114;9.130;2022-07-29T10:53:21;4.17;;;1.50;;
5684;SDS011;2865;53.114;9.130;2022-07-29T10:55:47;1.80;;;1.30;;
5684;SDS011;2865;53.114;9.130;2022-07-29T10:58:14;13.43;;;1.57;;
5684;SDS011;2865;53.114;9.130;2022-07-29T11:00:39;3.10;;;2.00;;
5684;SDS011;2865;53.114;9.130;2022-07-29T11:03:05;2.10;;;1.53;;
5684;SDS011;2865;53.114;9.130;2022-07-29T11:05:30;6.10;;;1.63;;
5684;SDS011;2865;53.114;9.130;2022-07-29T11:10:33;2.50;;;1.50;;
5684;SDS011;2865;53.114;9.130;2022-07-29T11:12:59;2.70;;;1.60;;
5684;SDS011;2865;53.114;9.130;2022-07-29T11:15:24;2.73;;;1.53;;
5684;SDS011;2865;53.114;9.130;2022-07-29T11:20:33;3.43;;;1.83;;
5684;SDS011;2865;53.114;9.130;2022-07-29T11:22:57;3.30;;;1.83;;
5684;SDS011;2865;53.114;9.130;2022-07-29T11:25:23;2.10;;;1.53;;
5684;SDS011;2865;53.114;9.130;2022-07-29T11:27:48;2.43;;;1.77;;
5684;SDS011;2865;53.114;9.130;2022-07-29T11:30:14;7.83;;;1.20;;
5684;SDS011;2865;53.114;9.130;2022-07-29T11:32:40;7.33;;;2.40;;
5684;SDS011;2865;53.114;9.130;2022-07-29T11:35:12;1.40;;;1.10;;
5684;SDS011;2865;53.114;9.130;2022-07-29T11:37:40;4.13;;;1.73;;
5684;SDS011;2865;53.114;9.130;2022-07-29T11:40:10;1.50;;;1.40;;
5684;SDS011;2865;53.114;9.130;2022-07-29T11:42:37;2.90;;;2.40;;
5684;SDS011;2865;53.114;9.130;2022-07-29T11:45:09;4.93;;;1.30;;
5684;SDS011;2865;53.114;9.130;2022-07-29T11:47:33;2.90;;;1.50;;
5684;SDS011;2865;53.114;9.130;2022-07-29T11:49:59;4.80;;;1.40;;
5684;SDS011;2865;53.114;9.130;2022-07-29T11:52:31;1.50;;;1.40;;
5684;SDS011;2865;53.114;9.130;2022-07-29T11:54:50;3.33;;;1.20;;
5684;SDS011;2865;53.114;9.130;2022-07-29T11:57:15;3.33;;;1.57;;
5684;SDS011;2865;53.114;9.130;2022-07-29T11:59:40;2.97;;;1.90;;
5684;SDS011;2865;53.114;9.130;2022-07-29T12:02:05;7.30;;;1.57;;
5684;SDS011;2865;53.114;9.130;2022-07-29T12:04:31;5.10;;;1.47;;
5684;SDS011;2865;53.114;9.130;2022-07-29T12:06:56;3.63;;;1.47;;
5684;SDS011;2865;53.114;9.130;2022-07-29T12:09:22;1.97;;;1.40;;
5684;SDS011;2865;53.114;9.130;2022-07-29T12:11:47;2.07;;;1.40;;
5684;SDS011;2865;53.114;9.130;2022-07-29T12:16:48;1.73;;;1.30;;
5684;SDS011;2865;53.114;9.130;2022-07-29T12:19:14;3.30;;;1.83;;
5684;SDS011;2865;53.114;9.130;2022-07-29T12:21:44;2.07;;;1.40;;
5684;SDS011;2865;53.114;9.130;2022-07-29T12:24:11;2.30;;;1.17;;
5684;SDS011;2865;53.114;9.130;2022-07-29T12:26:48;2.50;;;1.63;;
5684;SDS011;2865;53.114;9.130;2022-07-29T12:29:02;4.23;;;2.10;;
5684;SDS011;2865;53.114;9.130;2022-07-29T12:31:27;7.83;;;2.00;;
5684;SDS011;2865;53.114;9.130;2022-07-29T12:33:53;4.83;;;1.47;;
5684;SDS011;2865;53.114;9.130;2022-07-29T12:36:18;2.27;;;1.53;;
5684;SDS011;2865;53.114;9.130;2022-07-29T12:38:44;2.80;;;1.87;;
5684;SDS011;2865;53.114;9.130;2022-07-29T12:41:09;3.60;;;1.80;;
5684;SDS011;2865;53.114;9.130;2022-07-29T12:43:34;3.57;;;1.70;;
5684;SDS011;2865;53.114;9.130;2022-07-29T12:46:11;6.07;;;1.70;;
5684;SDS011;2865;53.114;9.130;2022-07-29T12:51:00;6.03;;;1.60;;
5684;SDS011;2865;53.114;9.130;2022-07-29T12:53:25;2.03;;;1.60;;
5684;SDS011;2865;53.114;9.130;2022-07-29T12:55:51;9.93;;;1.83;;
5684;SDS011;2865;53.114;9.130;2022-07-29T13:01:03;5.60;;;2.00;;
5684;SDS011;2865;53.114;9.130;2022-07-29T13:03:27;2.60;;;1.50;;
5684;SDS011;2865;53.114;9.130;2022-07-29T13:05:53;3.40;;;1.43;;
5684;SDS011;2865;53.114;9.130;2022-07-29T13:08:18;5.27;;;1.60;;
5684;SDS011;2865;53.114;9.130;2022-07-29T13:10:44;3.90;;;1.60;;
5684;SDS011;2865;53.114;9.130;2022-07-29T13:13:11;2.80;;;1.73;;
5684;SDS011;2865;53.114;9.130;2022-07-29T13:15:36;2.67;;;1.80;;
5684;SDS011;2865;53.114;9.130;2022-07-29T13:18:01;6.53;;;1.97;;
5684;SDS011;2865;53.114;9.130;2022-07-29T13:20:27;5.63;;;1.40;;
5684;SDS011;2865;53.114;9.130;2022-07-29T13:22:52;2.57;;;1.67;;
5684;SDS011;2865;53.114;9.130;2022-07-29T13:25:23;11.43;;;1.80;;
5684;SDS011;2865;53.114;9.130;2022-07-29T13:27:48;3.87;;;2.20;;
5684;SDS011;2865;53.114;9.130;2022-07-29T13:30:13;5.47;;;1.50;;
5684;SDS011;2865;53.114;9.130;2022-07-29T13:32:39;12.33;;;1.50;;
5684;SDS011;2865;53.114;9.130;2022-07-29T13:35:05;4.10;;;1.73;;
5684;SDS011;2865;53.114;9.130;2022-07-29T13:37:30;1.67;;;1.30;;
5684;SDS011;2865;53.114;9.130;2022-07-29T13:39:56;4.20;;;2.10;;
5684;SDS011;2865;53.114;9.130;2022-07-29T13:42:22;1.73;;;1.63;;
5684;SDS011;2865;53.114;9.130;2022-07-29T13:44:46;3.00;;;1.50;;
5684;SDS011;2865;53.114;9.130;2022-07-29T13:47:12;3.90;;;2.00;;
5684;SDS011;2865;53.114;9.130;2022-07-29T13:49:37;1.87;;;1.30;;
5684;SDS011;2865;53.114;9.130;2022-07-29T13:52:03;2.13;;;1.30;;
5684;SDS011;2865;53.114;9.130;2022-07-29T13:54:28;1.03;;;0.90;;
5684;SDS011;2865;53.114;9.130;2022-07-29T13:56:54;6.33;;;1.60;;
5684;SDS011;2865;53.114;9.130;2022-07-29T13:59:19;3.00;;;1.47;;
5684;SDS011;2865;53.114;9.130;2022-07-29T14:01:44;8.40;;;1.60;;
5684;SDS011;2865;53.114;9.130;2022-07-29T14:04:10;3.30;;;1.43;;
5684;SDS011;2865;53.114;9.130;2022-07-29T14:06:35;2.83;;;1.30;;
5684;SDS011;2865;53.114;9.130;2022-07-29T14:09:01;3.60;;;1.67;;
5684;SDS011;2865;53.114;9.130;2022-07-29T14:11:26;6.03;;;1.70;;
5684;SDS011;2865;53.114;9.130;2022-07-29T14:13:51;7.90;;;1.60;;
5684;SDS011;2865;53.114;9.130;2022-07-29T14:16:17;8.03;;;1.67;;
5684;SDS011;2865;53.114;9.130;2022-07-29T14:18:42;3.60;;;1.30;;
5684;SDS011;2865;53.114;9.130;2022-07-29T14:21:07;1.77;;;1.53;;
5684;SDS011;2865;53.114;9.130;2022-07-29T14:23:33;3.83;;;1.33;;
5684;SDS011;2865;53.114;9.130;2022-07-29T14:25:58;2.57;;;1.93;;
5684;SDS011;2865;53.114;9.130;2022-07-29T14:28:23;4.20;;;2.10;;
5684;SDS011;2865;53.114;9.130;2022-07-29T14:30:49;4.33;;;1.70;;
5684;SDS011;2865;53.114;9.130;2022-07-29T14:33:14;10.60;;;1.70;;
5684;SDS011;2865;53.114;9.130;2022-07-29T14:35:40;3.13;;;1.83;;
5684;SDS011;2865;53.114;9.130;2022-07-29T14:38:05;1.60;;;1.33;;
5684;SDS011;2865;53.114;9.130;2022-07-29T14:40:30;4.10;;;1.30;;
5684;SDS011;2865;53.114;9.130;2022-07-29T14:42:56;4.23;;;1.80;;
5684;SDS011;2865;53.114;9.130;2022-07-29T14:45:21;8.73;;;1.57;;
5684;SDS011;2865;53.114;9.130;2022-07-29T14:47:47;1.83;;;1.50;;
5684;SDS011;2865;53.114;9.130;2022-07-29T14:50:12;21.07;;;1.83;;
5684;SDS011;2865;53.114;9.130;2022-07-29T14:52:38;1.80;;;1.20;;
5684;SDS011;2865;53.114;9.130;2022-07-29T14:55:03;3.23;;;1.43;;
5684;SDS011;2865;53.114;9.130;2022-07-29T14:57:29;4.03;;;1.50;;
5684;SDS011;2865;53.114;9.130;2022-07-29T14:59:54;10.67;;;1.30;;
5684;SDS011;2865;53.114;9.130;2022-07-29T15:02:20;2.30;;;1.50;;
5684;SDS011;2865;53.114;9.130;2022-07-29T15:04:45;4.40;;;1.90;;
5684;SDS011;2865;53.114;9.130;2022-07-29T15:07:10;4.83;;;1.37;;
5684;SDS011;2865;53.114;9.130;2022-07-29T15:09:35;5.80;;;1.43;;
5684;SDS011;2865;53.114;9.130;2022-07-29T15:12:01;5.37;;;1.23;;
5684;SDS011;2865;53.114;9.130;2022-07-29T15:14:26;2.53;;;1.53;;
5684;SDS011;2865;53.114;9.130;2022-07-29T15:16:52;1.67;;;1.40;;
5684;SDS011;2865;53.114;9.130;2022-07-29T15:19:17;3.03;;;1.50;;
5684;SDS011;2865;53.114;9.130;2022-07-29T15:21:42;3.10;;;1.40;;
5684;SDS011;2865;53.114;9.130;2022-07-29T15:24:08;1.40;;;1.30;;
5684;SDS011;2865;53.114;9.130;2022-07-29T15:26:33;2.50;;;2.07;;
5684;SDS011;2865;53.114;9.130;2022-07-29T15:28:59;1.93;;;1.47;;